sensor_id;sensor_type;location;lat;lon;timestamp;temperature;humidity
3921;DHT22;1975;49.356;6.816;2022-08-01T00:01:07;25.60;86.40
3921;DHT22;1975;49.356;6.816;2022-08-01T00:03:33;25.60;86.50
3921;DHT22;1975;49.356;6.816;2022-08-01T00:05:58;25.60;86.60
3921;DHT22;1975;49.356;6.816;2022-08-01T00:08:24;25.60;86.60
3921;DHT22;1975;49.356;6.816;2022-08-01T00:10:49;25.60;87.30
3921;DHT22;1975;49.356;6.816;2022-08-01T00:13:15;25.50;86.40
3921;DHT22;1975;49.356;6.816;2022-08-01T00:15:40;25.50;86.40
3921;DHT22;1975;49.356;6.816;2022-08-01T00:18:06;25.50;86.50
3921;DHT22;1975;49.356;6.816;2022-08-01T00:20:31;25.50;86.50
3921;DHT22;1975;49.356;6.816;2022-08-01T00:22:56;25.50;86.50
3921;DHT22;1975;49.356;6.816;2022-08-01T00:25:22;25.50;86.60
3921;DHT22;1975;49.356;6.816;2022-08-01T00:27:47;25.50;86.60
3921;DHT22;1975;49.356;6.816;2022-08-01T00:30:13;25.40;86.50
3921;DHT22;1975;49.356;6.816;2022-08-01T00:32:38;25.40;87.20
3921;DHT22;1975;49.356;6.816;2022-08-01T00:35:04;25.40;86.50
3921;DHT22;1975;49.356;6.816;2022-08-01T00:37:29;25.40;86.60
3921;DHT22;1975;49.356;6.816;2022-08-01T00:39:55;25.40;86.50
3921;DHT22;1975;49.356;6.816;2022-08-01T00:42:20;25.40;86.50
3921;DHT22;1975;49.356;6.816;2022-08-01T00:44:46;25.40;86.50
3921;DHT22;1975;49.356;6.816;2022-08-01T00:47:12;25.30;86.50
3921;DHT22;1975;49.356;6.816;2022-08-01T00:49:37;25.30;86.50
3921;DHT22;1975;49.356;6.816;2022-08-01T00:52:03;25.30;86.40
3921;DHT22;1975;49.356;6.816;2022-08-01T00:54:30;25.30;86.50
3921;DHT22;1975;49.356;6.816;2022-08-01T00:56:56;25.30;86.50
3921;DHT22;1975;49.356;6.816;2022-08-01T00:59:22;25.30;86.50
3921;DHT22;1975;49.356;6.816;2022-08-01T01:01:47;25.20;86.20
3921;DHT22;1975;49.356;6.816;2022-08-01T01:04:13;25.20;86.20
3921;DHT22;1975;49.356;6.816;2022-08-01T01:11:35;25.20;86.30
3921;DHT22;1975;49.356;6.816;2022-08-01T01:14:04;25.20;86.30
3921;DHT22;1975;49.356;6.816;2022-08-01T01:16:30;25.20;86.40
3921;DHT22;1975;49.356;6.816;2022-08-01T01:18:57;25.10;86.20
3921;DHT22;1975;49.356;6.816;2022-08-01T01:24:25;25.10;86.10
3921;DHT22;1975;49.356;6.816;2022-08-01T01:27:01;25.10;86.20
3921;DHT22;1975;49.356;6.816;2022-08-01T01:29:35;25.10;86.20
3921;DHT22;1975;49.356;6.816;2022-08-01T01:32:04;25.00;86.30
3921;DHT22;1975;49.356;6.816;2022-08-01T01:34:29;25.00;86.20
3921;DHT22;1975;49.356;6.816;2022-08-01T01:36:57;25.00;86.30
3921;DHT22;1975;49.356;6.816;2022-08-01T01:39:24;25.00;86.40
3921;DHT22;1975;49.356;6.816;2022-08-01T01:41:50;25.00;86.40
3921;DHT22;1975;49.356;6.816;2022-08-01T01:44:17;25.00;86.40
3921;DHT22;1975;49.356;6.816;2022-08-01T01:46:43;25.00;86.50
3921;DHT22;1975;49.356;6.816;2022-08-01T01:49:09;25.00;86.50
3921;DHT22;1975;49.356;6.816;2022-08-01T01:51:36;24.90;86.50
3921;DHT22;1975;49.356;6.816;2022-08-01T01:54:02;24.90;86.40
3921;DHT22;1975;49.356;6.816;2022-08-01T01:56:29;24.90;86.40
3921;DHT22;1975;49.356;6.816;2022-08-01T01:59:00;24.90;86.50
3921;DHT22;1975;49.356;6.816;2022-08-01T02:01:26;24.90;86.60
3921;DHT22;1975;49.356;6.816;2022-08-01T02:03:53;24.90;86.70
3921;DHT22;1975;49.356;6.816;2022-08-01T02:06:20;24.80;86.60
3921;DHT22;1975;49.356;6.816;2022-08-01T02:08:45;24.80;86.50
3921;DHT22;1975;49.356;6.816;2022-08-01T02:11:13;24.80;86.60
3921;DHT22;1975;49.356;6.816;2022-08-01T02:13:55;24.80;86.70
3921;DHT22;1975;49.356;6.816;2022-08-01T02:16:25;24.80;86.70
3921;DHT22;1975;49.356;6.816;2022-08-01T02:18:51;24.80;86.70
3921;DHT22;1975;49.356;6.816;2022-08-01T02:21:27;24.80;86.60
3921;DHT22;1975;49.356;6.816;2022-08-01T02:23:53;24.70;86.60
3921;DHT22;1975;49.356;6.816;2022-08-01T02:26:20;24.70;86.80
3921;DHT22;1975;49.356;6.816;2022-08-01T02:28:47;24.70;86.70
3921;DHT22;1975;49.356;6.816;2022-08-01T02:31:16;24.70;86.70
3921;DHT22;1975;49.356;6.816;2022-08-01T02:33:43;24.70;86.80
3921;DHT22;1975;49.356;6.816;2022-08-01T02:36:09;24.60;86.70
3921;DHT22;1975;49.356;6.816;2022-08-01T02:38:37;24.60;86.70
3921;DHT22;1975;49.356;6.816;2022-08-01T02:41:06;24.60;86.70
3921;DHT22;1975;49.356;6.816;2022-08-01T02:43:34;24.60;86.70
3921;DHT22;1975;49.356;6.816;2022-08-01T02:46:01;24.60;86.80
3921;DHT22;1975;49.356;6.816;2022-08-01T02:48:27;24.60;86.80
3921;DHT22;1975;49.356;6.816;2022-08-01T02:50:57;24.60;86.70
3921;DHT22;1975;49.356;6.816;2022-08-01T02:53:23;24.60;86.70
3921;DHT22;1975;49.356;6.816;2022-08-01T02:55:50;24.50;86.70
3921;DHT22;1975;49.356;6.816;2022-08-01T02:58:16;24.50;86.70
3921;DHT22;1975;49.356;6.816;2022-08-01T03:00:44;24.50;86.70
3921;DHT22;1975;49.356;6.816;2022-08-01T03:03:10;24.50;86.70
3921;DHT22;1975;49.356;6.816;2022-08-01T03:05:35;24.50;86.80
3921;DHT22;1975;49.356;6.816;2022-08-01T03:08:02;24.50;86.70
3921;DHT22;1975;49.356;6.816;2022-08-01T03:10:28;24.40;86.70
3921;DHT22;1975;49.356;6.816;2022-08-01T03:12:54;24.40;86.60
3921;DHT22;1975;49.356;6.816;2022-08-01T03:15:21;24.40;86.60
3921;DHT22;1975;49.356;6.816;2022-08-01T03:17:47;24.40;86.80
3921;DHT22;1975;49.356;6.816;2022-08-01T03:20:14;24.40;86.80
3921;DHT22;1975;49.356;6.816;2022-08-01T03:22:40;24.40;86.80
3921;DHT22;1975;49.356;6.816;2022-08-01T03:25:06;24.30;86.70
3921;DHT22;1975;49.356;6.816;2022-08-01T03:27:33;24.30;86.80
3921;DHT22;1975;49.356;6.816;2022-08-01T03:30:00;24.30;86.80
3921;DHT22;1975;49.356;6.816;2022-08-01T03:32:27;24.30;86.90
3921;DHT22;1975;49.356;6.816;2022-08-01T03:34:53;24.30;86.90
3921;DHT22;1975;49.356;6.816;2022-08-01T03:39:47;24.20;86.80
3921;DHT22;1975;49.356;6.816;2022-08-01T03:42:16;24.20;86.80
3921;DHT22;1975;49.356;6.816;2022-08-01T03:44:43;24.20;86.80
3921;DHT22;1975;49.356;6.816;2022-08-01T03:47:12;24.20;87.00
3921;DHT22;1975;49.356;6.816;2022-08-01T03:49:40;24.20;86.90
3921;DHT22;1975;49.356;6.816;2022-08-01T03:52:07;24.20;87.00
3921;DHT22;1975;49.356;6.816;2022-08-01T03:54:34;24.20;87.10
3921;DHT22;1975;49.356;6.816;2022-08-01T03:57:00;24.20;87.00
3921;DHT22;1975;49.356;6.816;2022-08-01T03:59:27;24.20;87.10
3921;DHT22;1975;49.356;6.816;2022-08-01T04:01:53;24.10;87.10
3921;DHT22;1975;49.356;6.816;2022-08-01T04:04:18;24.10;87.20
3921;DHT22;1975;49.356;6.816;2022-08-01T04:06:44;24.10;87.20
3921;DHT22;1975;49.356;6.816;2022-08-01T04:09:10;24.10;87.20
3921;DHT22;1975;49.356;6.816;2022-08-01T04:11:36;24.10;87.30
3921;DHT22;1975;49.356;6.816;2022-08-01T04:14:02;24.00;87.20
3921;DHT22;1975;49.356;6.816;2022-08-01T04:16:27;24.00;87.20
3921;DHT22;1975;49.356;6.816;2022-08-01T04:18:52;24.00;87.30
3921;DHT22;1975;49.356;6.816;2022-08-01T04:21:20;24.00;87.30
3921;DHT22;1975;49.356;6.816;2022-08-01T04:23:46;24.00;87.30
3921;DHT22;1975;49.356;6.816;2022-08-01T04:26:12;24.00;88.40
3921;DHT22;1975;49.356;6.816;2022-08-01T04:28:39;24.00;88.90
3921;DHT22;1975;49.356;6.816;2022-08-01T04:31:06;24.00;89.20
3921;DHT22;1975;49.356;6.816;2022-08-01T04:33:34;23.90;88.50
3921;DHT22;1975;49.356;6.816;2022-08-01T04:36:01;23.90;88.30
3921;DHT22;1975;49.356;6.816;2022-08-01T04:38:27;23.90;88.30
3921;DHT22;1975;49.356;6.816;2022-08-01T04:40:53;23.90;88.10
3921;DHT22;1975;49.356;6.816;2022-08-01T04:43:19;23.90;88.10
3921;DHT22;1975;49.356;6.816;2022-08-01T04:45:45;23.90;88.00
3921;DHT22;1975;49.356;6.816;2022-08-01T04:48:11;23.90;87.90
3921;DHT22;1975;49.356;6.816;2022-08-01T04:50:38;23.90;87.90
3921;DHT22;1975;49.356;6.816;2022-08-01T04:53:12;23.90;87.90
3921;DHT22;1975;49.356;6.816;2022-08-01T04:55:37;23.90;88.00
3921;DHT22;1975;49.356;6.816;2022-08-01T04:58:03;23.90;88.00
3921;DHT22;1975;49.356;6.816;2022-08-01T05:00:28;23.90;88.00
3921;DHT22;1975;49.356;6.816;2022-08-01T05:02:53;23.90;88.00
3921;DHT22;1975;49.356;6.816;2022-08-01T05:05:19;23.80;87.80
3921;DHT22;1975;49.356;6.816;2022-08-01T05:07:46;23.80;87.90
3921;DHT22;1975;49.356;6.816;2022-08-01T05:10:11;23.80;88.00
3921;DHT22;1975;49.356;6.816;2022-08-01T05:12:37;23.80;88.00
3921;DHT22;1975;49.356;6.816;2022-08-01T05:15:02;23.80;87.90
3921;DHT22;1975;49.356;6.816;2022-08-01T05:17:28;23.90;88.10
3921;DHT22;1975;49.356;6.816;2022-08-01T05:19:53;23.80;88.00
3921;DHT22;1975;49.356;6.816;2022-08-01T05:22:19;23.80;88.00
3921;DHT22;1975;49.356;6.816;2022-08-01T05:24:44;23.80;88.10
3921;DHT22;1975;49.356;6.816;2022-08-01T05:27:11;23.80;88.10
3921;DHT22;1975;49.356;6.816;2022-08-01T05:29:36;23.80;88.20
3921;DHT22;1975;49.356;6.816;2022-08-01T05:32:02;23.80;88.30
3921;DHT22;1975;49.356;6.816;2022-08-01T05:34:28;23.80;88.40
3921;DHT22;1975;49.356;6.816;2022-08-01T05:36:53;23.80;88.50
3921;DHT22;1975;49.356;6.816;2022-08-01T05:39:19;23.80;88.60
3921;DHT22;1975;49.356;6.816;2022-08-01T05:41:44;23.80;88.60
3921;DHT22;1975;49.356;6.816;2022-08-01T05:44:10;23.80;88.60
3921;DHT22;1975;49.356;6.816;2022-08-01T05:46:35;23.80;88.60
3921;DHT22;1975;49.356;6.816;2022-08-01T05:49:01;23.80;88.50
3921;DHT22;1975;49.356;6.816;2022-08-01T05:51:27;23.80;88.60
3921;DHT22;1975;49.356;6.816;2022-08-01T05:53:52;23.80;88.70
3921;DHT22;1975;49.356;6.816;2022-08-01T05:56:18;23.80;88.80
3921;DHT22;1975;49.356;6.816;2022-08-01T05:58:43;23.80;88.70
3921;DHT22;1975;49.356;6.816;2022-08-01T06:01:09;23.80;88.70
3921;DHT22;1975;49.356;6.816;2022-08-01T06:03:34;23.80;88.60
3921;DHT22;1975;49.356;6.816;2022-08-01T06:06:00;23.80;88.60
3921;DHT22;1975;49.356;6.816;2022-08-01T06:08:26;23.80;88.70
3921;DHT22;1975;49.356;6.816;2022-08-01T06:10:51;23.80;88.70
3921;DHT22;1975;49.356;6.816;2022-08-01T06:13:17;23.80;88.70
3921;DHT22;1975;49.356;6.816;2022-08-01T06:15:43;23.80;88.70
3921;DHT22;1975;49.356;6.816;2022-08-01T06:18:08;23.80;88.80
3921;DHT22;1975;49.356;6.816;2022-08-01T06:20:34;23.80;88.70
3921;DHT22;1975;49.356;6.816;2022-08-01T06:22:59;23.80;88.60
3921;DHT22;1975;49.356;6.816;2022-08-01T06:25:25;23.90;88.60
3921;DHT22;1975;49.356;6.816;2022-08-01T06:27:50;23.90;88.50
3921;DHT22;1975;49.356;6.816;2022-08-01T06:30:16;23.80;88.50
3921;DHT22;1975;49.356;6.816;2022-08-01T06:32:41;23.90;88.60
3921;DHT22;1975;49.356;6.816;2022-08-01T06:35:07;23.90;88.50
3921;DHT22;1975;49.356;6.816;2022-08-01T06:37:32;23.90;88.60
3921;DHT22;1975;49.356;6.816;2022-08-01T06:40:02;24.00;88.70
3921;DHT22;1975;49.356;6.816;2022-08-01T06:42:28;24.00;88.80
3921;DHT22;1975;49.356;6.816;2022-08-01T06:44:54;24.00;88.80
3921;DHT22;1975;49.356;6.816;2022-08-01T06:47:19;24.00;89.00
3921;DHT22;1975;49.356;6.816;2022-08-01T06:49:45;24.00;89.00
3921;DHT22;1975;49.356;6.816;2022-08-01T06:52:10;24.00;89.00
3921;DHT22;1975;49.356;6.816;2022-08-01T06:54:35;24.00;89.10
3921;DHT22;1975;49.356;6.816;2022-08-01T06:57:04;24.10;89.20
3921;DHT22;1975;49.356;6.816;2022-08-01T06:59:30;24.00;89.20
3921;DHT22;1975;49.356;6.816;2022-08-01T07:01:55;24.10;89.30
3921;DHT22;1975;49.356;6.816;2022-08-01T07:04:21;24.10;89.40
3921;DHT22;1975;49.356;6.816;2022-08-01T07:06:46;24.10;89.50
3921;DHT22;1975;49.356;6.816;2022-08-01T07:09:12;24.10;89.50
3921;DHT22;1975;49.356;6.816;2022-08-01T07:11:37;24.20;89.60
3921;DHT22;1975;49.356;6.816;2022-08-01T07:14:03;24.10;89.60
3921;DHT22;1975;49.356;6.816;2022-08-01T07:16:28;24.20;89.70
3921;DHT22;1975;49.356;6.816;2022-08-01T07:18:54;24.20;89.80
3921;DHT22;1975;49.356;6.816;2022-08-01T07:21:19;24.20;89.70
3921;DHT22;1975;49.356;6.816;2022-08-01T07:23:45;24.20;89.80
3921;DHT22;1975;49.356;6.816;2022-08-01T07:26:10;24.20;89.80
3921;DHT22;1975;49.356;6.816;2022-08-01T07:28:36;24.20;89.80
3921;DHT22;1975;49.356;6.816;2022-08-01T07:31:01;24.20;89.80
3921;DHT22;1975;49.356;6.816;2022-08-01T07:33:27;24.20;89.80
3921;DHT22;1975;49.356;6.816;2022-08-01T07:35:52;24.20;89.90
3921;DHT22;1975;49.356;6.816;2022-08-01T07:38:17;24.20;90.00
3921;DHT22;1975;49.356;6.816;2022-08-01T07:40:43;24.20;90.00
3921;DHT22;1975;49.356;6.816;2022-08-01T07:43:09;24.20;90.00
3921;DHT22;1975;49.356;6.816;2022-08-01T07:45:34;24.20;90.00
3921;DHT22;1975;49.356;6.816;2022-08-01T07:48:04;24.20;90.00
3921;DHT22;1975;49.356;6.816;2022-08-01T07:50:29;24.20;90.00
3921;DHT22;1975;49.356;6.816;2022-08-01T07:52:55;24.20;90.00
3921;DHT22;1975;49.356;6.816;2022-08-01T07:55:20;24.20;90.00
3921;DHT22;1975;49.356;6.816;2022-08-01T07:57:46;24.20;90.10
3921;DHT22;1975;49.356;6.816;2022-08-01T08:00:11;24.20;90.10
3921;DHT22;1975;49.356;6.816;2022-08-01T08:02:37;24.20;90.10
3921;DHT22;1975;49.356;6.816;2022-08-01T08:05:02;24.20;90.10
3921;DHT22;1975;49.356;6.816;2022-08-01T08:07:29;24.20;90.10
3921;DHT22;1975;49.356;6.816;2022-08-01T08:09:54;24.20;90.10
3921;DHT22;1975;49.356;6.816;2022-08-01T08:12:20;24.20;90.20
3921;DHT22;1975;49.356;6.816;2022-08-01T08:14:45;24.20;90.20
3921;DHT22;1975;49.356;6.816;2022-08-01T08:17:11;24.20;90.20
3921;DHT22;1975;49.356;6.816;2022-08-01T08:19:36;24.20;90.20
3921;DHT22;1975;49.356;6.816;2022-08-01T08:22:04;24.20;90.20
3921;DHT22;1975;49.356;6.816;2022-08-01T08:24:29;24.20;90.30
3921;DHT22;1975;49.356;6.816;2022-08-01T08:26:55;24.20;90.30
3921;DHT22;1975;49.356;6.816;2022-08-01T08:29:22;24.20;90.30
3921;DHT22;1975;49.356;6.816;2022-08-01T08:31:48;24.20;90.30
3921;DHT22;1975;49.356;6.816;2022-08-01T08:34:14;24.20;90.30
3921;DHT22;1975;49.356;6.816;2022-08-01T08:36:39;24.20;90.30
3921;DHT22;1975;49.356;6.816;2022-08-01T08:39:05;24.20;90.30
3921;DHT22;1975;49.356;6.816;2022-08-01T08:41:31;24.20;90.30
3921;DHT22;1975;49.356;6.816;2022-08-01T08:43:56;24.20;90.40
3921;DHT22;1975;49.356;6.816;2022-08-01T08:46:25;24.20;90.40
3921;DHT22;1975;49.356;6.816;2022-08-01T08:48:51;24.20;90.40
3921;DHT22;1975;49.356;6.816;2022-08-01T08:51:17;24.20;90.40
3921;DHT22;1975;49.356;6.816;2022-08-01T08:53:43;24.20;90.40
3921;DHT22;1975;49.356;6.816;2022-08-01T08:56:13;24.10;90.40
3921;DHT22;1975;49.356;6.816;2022-08-01T08:58:44;24.20;90.40
3921;DHT22;1975;49.356;6.816;2022-08-01T09:01:09;24.20;90.40
3921;DHT22;1975;49.356;6.816;2022-08-01T09:03:37;24.10;90.40
3921;DHT22;1975;49.356;6.816;2022-08-01T09:06:02;24.20;90.50
3921;DHT22;1975;49.356;6.816;2022-08-01T09:08:28;24.10;90.40
3921;DHT22;1975;49.356;6.816;2022-08-01T09:10:53;24.10;90.40
3921;DHT22;1975;49.356;6.816;2022-08-01T09:13:19;24.20;90.50
3921;DHT22;1975;49.356;6.816;2022-08-01T09:18:26;24.20;90.50
3921;DHT22;1975;49.356;6.816;2022-08-01T09:23:38;24.10;90.50
3921;DHT22;1975;49.356;6.816;2022-08-01T09:26:08;24.20;90.50
3921;DHT22;1975;49.356;6.816;2022-08-01T09:28:34;24.20;90.50
3921;DHT22;1975;49.356;6.816;2022-08-01T09:31:05;24.20;90.50
3921;DHT22;1975;49.356;6.816;2022-08-01T09:33:46;24.10;90.50
3921;DHT22;1975;49.356;6.816;2022-08-01T09:36:12;24.20;90.60
3921;DHT22;1975;49.356;6.816;2022-08-01T09:38:37;24.20;90.60
3921;DHT22;1975;49.356;6.816;2022-08-01T09:41:03;24.20;90.60
3921;DHT22;1975;49.356;6.816;2022-08-01T09:43:29;24.20;90.60
3921;DHT22;1975;49.356;6.816;2022-08-01T09:45:55;24.20;90.60
3921;DHT22;1975;49.356;6.816;2022-08-01T09:48:21;24.20;91.00
3921;DHT22;1975;49.356;6.816;2022-08-01T09:50:49;24.20;90.60
3921;DHT22;1975;49.356;6.816;2022-08-01T09:53:14;24.20;90.60
3921;DHT22;1975;49.356;6.816;2022-08-01T09:55:41;24.20;90.70
3921;DHT22;1975;49.356;6.816;2022-08-01T09:58:06;24.20;90.70
3921;DHT22;1975;49.356;6.816;2022-08-01T10:00:32;24.20;90.70
3921;DHT22;1975;49.356;6.816;2022-08-01T10:02:58;24.20;90.70
3921;DHT22;1975;49.356;6.816;2022-08-01T10:05:34;24.20;90.70
3921;DHT22;1975;49.356;6.816;2022-08-01T10:08:01;24.20;90.70
3921;DHT22;1975;49.356;6.816;2022-08-01T10:10:28;24.20;90.70
3921;DHT22;1975;49.356;6.816;2022-08-01T10:12:53;24.20;90.70
3921;DHT22;1975;49.356;6.816;2022-08-01T10:15:20;24.20;90.80
3921;DHT22;1975;49.356;6.816;2022-08-01T10:17:51;24.20;90.80
3921;DHT22;1975;49.356;6.816;2022-08-01T10:20:21;24.20;90.80
3921;DHT22;1975;49.356;6.816;2022-08-01T10:22:47;24.20;90.80
3921;DHT22;1975;49.356;6.816;2022-08-01T10:25:14;24.20;90.80
3921;DHT22;1975;49.356;6.816;2022-08-01T10:27:43;24.20;90.80
3921;DHT22;1975;49.356;6.816;2022-08-01T10:30:12;24.20;90.80
3921;DHT22;1975;49.356;6.816;2022-08-01T10:32:38;24.20;90.90
3921;DHT22;1975;49.356;6.816;2022-08-01T10:35:04;24.20;91.20
3921;DHT22;1975;49.356;6.816;2022-08-01T10:37:30;24.20;90.90
3921;DHT22;1975;49.356;6.816;2022-08-01T10:39:55;24.20;90.90
3921;DHT22;1975;49.356;6.816;2022-08-01T10:42:21;24.20;90.90
3921;DHT22;1975;49.356;6.816;2022-08-01T10:44:47;24.20;90.90
3921;DHT22;1975;49.356;6.816;2022-08-01T10:47:13;24.20;90.90
3921;DHT22;1975;49.356;6.816;2022-08-01T10:49:50;24.20;90.90
3921;DHT22;1975;49.356;6.816;2022-08-01T10:52:19;24.20;90.90
3921;DHT22;1975;49.356;6.816;2022-08-01T10:54:45;24.30;91.00
3921;DHT22;1975;49.356;6.816;2022-08-01T10:57:10;24.20;91.00
3921;DHT22;1975;49.356;6.816;2022-08-01T10:59:50;24.20;91.00
3921;DHT22;1975;49.356;6.816;2022-08-01T11:02:25;24.30;91.00
3921;DHT22;1975;49.356;6.816;2022-08-01T11:07:20;24.30;91.00
3921;DHT22;1975;49.356;6.816;2022-08-01T11:09:47;24.30;91.00
3921;DHT22;1975;49.356;6.816;2022-08-01T11:12:15;24.30;91.00
3921;DHT22;1975;49.356;6.816;2022-08-01T11:17:41;24.30;91.00
3921;DHT22;1975;49.356;6.816;2022-08-01T11:25:23;24.30;91.10
3921;DHT22;1975;49.356;6.816;2022-08-01T11:27:48;24.40;91.10
3921;DHT22;1975;49.356;6.816;2022-08-01T11:32:47;24.40;91.10
3921;DHT22;1975;49.356;6.816;2022-08-01T11:35:13;24.40;91.10
3921;DHT22;1975;49.356;6.816;2022-08-01T11:37:39;24.40;91.10
3921;DHT22;1975;49.356;6.816;2022-08-01T11:40:20;24.40;91.30
3921;DHT22;1975;49.356;6.816;2022-08-01T11:42:47;24.40;91.10
3921;DHT22;1975;49.356;6.816;2022-08-01T11:45:12;24.40;91.10
3921;DHT22;1975;49.356;6.816;2022-08-01T11:47:48;24.40;91.10
3921;DHT22;1975;49.356;6.816;2022-08-01T11:50:33;24.50;91.20
3921;DHT22;1975;49.356;6.816;2022-08-01T11:52:59;24.50;91.20
3921;DHT22;1975;49.356;6.816;2022-08-01T11:55:26;24.50;91.20
3921;DHT22;1975;49.356;6.816;2022-08-01T11:57:58;24.50;91.20
3921;DHT22;1975;49.356;6.816;2022-08-01T12:00:23;24.50;91.30
3921;DHT22;1975;49.356;6.816;2022-08-01T12:02:56;24.50;91.20
3921;DHT22;1975;49.356;6.816;2022-08-01T12:05:22;24.50;91.20
3921;DHT22;1975;49.356;6.816;2022-08-01T12:07:51;24.50;91.30
3921;DHT22;1975;49.356;6.816;2022-08-01T12:10:17;24.50;91.30
3921;DHT22;1975;49.356;6.816;2022-08-01T12:12:50;24.50;91.30
3921;DHT22;1975;49.356;6.816;2022-08-01T12:15:17;24.50;91.30
3921;DHT22;1975;49.356;6.816;2022-08-01T12:17:44;24.60;91.40
3921;DHT22;1975;49.356;6.816;2022-08-01T12:20:13;24.50;91.30
3921;DHT22;1975;49.356;6.816;2022-08-01T12:22:38;24.60;91.40
3921;DHT22;1975;49.356;6.816;2022-08-01T12:25:04;24.60;91.40
3921;DHT22;1975;49.356;6.816;2022-08-01T12:27:30;24.60;91.40
3921;DHT22;1975;49.356;6.816;2022-08-01T12:29:56;24.60;91.40
3921;DHT22;1975;49.356;6.816;2022-08-01T12:32:23;24.60;91.40
3921;DHT22;1975;49.356;6.816;2022-08-01T12:34:49;24.60;91.40
3921;DHT22;1975;49.356;6.816;2022-08-01T12:37:15;24.60;91.50
3921;DHT22;1975;49.356;6.816;2022-08-01T12:39:41;24.60;91.50
3921;DHT22;1975;49.356;6.816;2022-08-01T12:42:07;24.60;91.80
3921;DHT22;1975;49.356;6.816;2022-08-01T12:44:33;24.60;91.50
3921;DHT22;1975;49.356;6.816;2022-08-01T12:46:59;24.60;91.50
3921;DHT22;1975;49.356;6.816;2022-08-01T12:49:25;24.70;91.50
3921;DHT22;1975;49.356;6.816;2022-08-01T12:51:52;24.60;91.50
3921;DHT22;1975;49.356;6.816;2022-08-01T12:54:18;24.70;91.50
3921;DHT22;1975;49.356;6.816;2022-08-01T12:56:44;24.60;91.50
3921;DHT22;1975;49.356;6.816;2022-08-01T12:59:20;24.70;91.60
3921;DHT22;1975;49.356;6.816;2022-08-01T13:01:46;24.70;91.60
3921;DHT22;1975;49.356;6.816;2022-08-01T13:04:12;24.70;91.60
3921;DHT22;1975;49.356;6.816;2022-08-01T13:06:37;24.70;91.60
3921;DHT22;1975;49.356;6.816;2022-08-01T13:09:06;24.70;91.60
3921;DHT22;1975;49.356;6.816;2022-08-01T13:11:32;24.70;91.60
3921;DHT22;1975;49.356;6.816;2022-08-01T13:13:57;24.70;91.60
3921;DHT22;1975;49.356;6.816;2022-08-01T13:16:24;24.80;91.60
3921;DHT22;1975;49.356;6.816;2022-08-01T13:18:53;24.70;91.60
3921;DHT22;1975;49.356;6.816;2022-08-01T13:21:19;24.80;91.70
3921;DHT22;1975;49.356;6.816;2022-08-01T13:26:38;24.80;91.70
3921;DHT22;1975;49.356;6.816;2022-08-01T13:29:07;24.80;91.80
3921;DHT22;1975;49.356;6.816;2022-08-01T13:31:33;24.80;91.70
3921;DHT22;1975;49.356;6.816;2022-08-01T13:33:59;24.80;91.80
3921;DHT22;1975;49.356;6.816;2022-08-01T13:36:25;24.80;91.80
3921;DHT22;1975;49.356;6.816;2022-08-01T13:38:52;24.90;91.80
3921;DHT22;1975;49.356;6.816;2022-08-01T13:41:36;24.80;91.80
3921;DHT22;1975;49.356;6.816;2022-08-01T13:44:02;24.90;91.90
3921;DHT22;1975;49.356;6.816;2022-08-01T13:46:27;24.90;91.90
3921;DHT22;1975;49.356;6.816;2022-08-01T13:48:53;24.90;91.90
3921;DHT22;1975;49.356;6.816;2022-08-01T13:51:18;24.90;91.90
3921;DHT22;1975;49.356;6.816;2022-08-01T13:53:44;25.00;91.90
3921;DHT22;1975;49.356;6.816;2022-08-01T13:56:09;25.00;92.00
3921;DHT22;1975;49.356;6.816;2022-08-01T13:58:36;25.00;92.00
3921;DHT22;1975;49.356;6.816;2022-08-01T14:01:01;25.00;92.00
3921;DHT22;1975;49.356;6.816;2022-08-01T14:03:27;25.00;92.00
3921;DHT22;1975;49.356;6.816;2022-08-01T14:05:53;25.00;92.00
3921;DHT22;1975;49.356;6.816;2022-08-01T14:08:18;25.10;92.10
3921;DHT22;1975;49.356;6.816;2022-08-01T14:10:44;25.10;92.10
3921;DHT22;1975;49.356;6.816;2022-08-01T14:13:09;25.10;92.10
3921;DHT22;1975;49.356;6.816;2022-08-01T14:15:36;25.10;92.10
3921;DHT22;1975;49.356;6.816;2022-08-01T14:18:01;25.10;92.00
3921;DHT22;1975;49.356;6.816;2022-08-01T14:20:27;25.10;92.10
3921;DHT22;1975;49.356;6.816;2022-08-01T14:22:52;25.20;92.10
3921;DHT22;1975;49.356;6.816;2022-08-01T14:25:18;25.20;92.10
3921;DHT22;1975;49.356;6.816;2022-08-01T14:27:44;25.10;92.00
3921;DHT22;1975;49.356;6.816;2022-08-01T14:30:10;25.20;92.50
3921;DHT22;1975;49.356;6.816;2022-08-01T14:32:36;25.20;92.10
3921;DHT22;1975;49.356;6.816;2022-08-01T14:35:03;25.10;92.10
3921;DHT22;1975;49.356;6.816;2022-08-01T14:37:29;25.10;92.10
3921;DHT22;1975;49.356;6.816;2022-08-01T14:39:55;25.20;92.10
3921;DHT22;1975;49.356;6.816;2022-08-01T14:42:20;25.20;92.10
3921;DHT22;1975;49.356;6.816;2022-08-01T14:44:45;25.20;92.10
3921;DHT22;1975;49.356;6.816;2022-08-01T14:47:11;25.20;92.10
3921;DHT22;1975;49.356;6.816;2022-08-01T14:49:36;25.20;92.10
3921;DHT22;1975;49.356;6.816;2022-08-01T14:52:02;25.20;92.10
3921;DHT22;1975;49.356;6.816;2022-08-01T14:54:27;25.20;92.10
3921;DHT22;1975;49.356;6.816;2022-08-01T14:56:53;25.20;92.10
3921;DHT22;1975;49.356;6.816;2022-08-01T14:59:18;25.20;92.10
3921;DHT22;1975;49.356;6.816;2022-08-01T15:01:44;25.20;92.10
3921;DHT22;1975;49.356;6.816;2022-08-01T15:04:10;25.20;92.10
3921;DHT22;1975;49.356;6.816;2022-08-01T15:06:35;25.20;92.10
3921;DHT22;1975;49.356;6.816;2022-08-01T15:09:01;25.20;92.10
3921;DHT22;1975;49.356;6.816;2022-08-01T15:11:27;25.20;92.00
3921;DHT22;1975;49.356;6.816;2022-08-01T15:13:52;25.20;92.00
3921;DHT22;1975;49.356;6.816;2022-08-01T15:16:37;25.20;92.00
3921;DHT22;1975;49.356;6.816;2022-08-01T15:19:03;25.20;92.00
3921;DHT22;1975;49.356;6.816;2022-08-01T15:21:29;25.20;92.00
3921;DHT22;1975;49.356;6.816;2022-08-01T15:23:54;25.20;92.00
3921;DHT22;1975;49.356;6.816;2022-08-01T15:26:20;25.20;92.00
3921;DHT22;1975;49.356;6.816;2022-08-01T15:28:45;25.20;91.90
3921;DHT22;1975;49.356;6.816;2022-08-01T15:31:11;25.30;92.00
3921;DHT22;1975;49.356;6.816;2022-08-01T15:33:36;25.20;91.90
3921;DHT22;1975;49.356;6.816;2022-08-01T15:36:02;25.30;91.90
3921;DHT22;1975;49.356;6.816;2022-08-01T15:38:27;25.30;91.90
3921;DHT22;1975;49.356;6.816;2022-08-01T15:40:53;25.20;91.90
3921;DHT22;1975;49.356;6.816;2022-08-01T15:43:18;25.20;91.90
3921;DHT22;1975;49.356;6.816;2022-08-01T15:45:44;25.30;91.90
3921;DHT22;1975;49.356;6.816;2022-08-01T15:48:10;25.30;91.90
3921;DHT22;1975;49.356;6.816;2022-08-01T15:50:35;25.30;91.90
3921;DHT22;1975;49.356;6.816;2022-08-01T15:53:03;25.20;91.80
3921;DHT22;1975;49.356;6.816;2022-08-01T15:55:28;25.20;91.80
3921;DHT22;1975;49.356;6.816;2022-08-01T15:57:54;25.20;91.90
3921;DHT22;1975;49.356;6.816;2022-08-01T16:00:20;25.20;91.80
3921;DHT22;1975;49.356;6.816;2022-08-01T16:02:45;25.30;91.80
3921;DHT22;1975;49.356;6.816;2022-08-01T16:05:11;25.20;91.70
3921;DHT22;1975;49.356;6.816;2022-08-01T16:07:37;25.20;91.80
3921;DHT22;1975;49.356;6.816;2022-08-01T16:10:03;25.20;91.70
3921;DHT22;1975;49.356;6.816;2022-08-01T16:12:28;25.20;91.70
3921;DHT22;1975;49.356;6.816;2022-08-01T16:14:55;25.20;91.70
3921;DHT22;1975;49.356;6.816;2022-08-01T16:17:20;25.20;91.70
3921;DHT22;1975;49.356;6.816;2022-08-01T16:19:46;25.30;91.70
3921;DHT22;1975;49.356;6.816;2022-08-01T16:22:11;25.30;91.70
3921;DHT22;1975;49.356;6.816;2022-08-01T16:24:37;25.30;91.70
3921;DHT22;1975;49.356;6.816;2022-08-01T16:27:02;25.30;91.70
3921;DHT22;1975;49.356;6.816;2022-08-01T16:29:28;25.30;91.70